Time;durP1;ratioP1;P1;durP2;ratioP2;P2;SDS_P1;SDS_P2;PMS_P1;PMS_P2;Temp;Humidity;BMP_temperature;BMP_pressure;BME280_temperature;BME280_humidity;BME280_pressure;Samples;Min_cycle;Max_cycle;Signal;HPM_P1;HPM_P2
2021/11/29 00:01:02;;;;;;;9.87;8.97;;;1.60;99.90;;;;;;5024223;28;20208;-86
2021/11/29 00:03:30;;;;;;;9.90;9.07;;;2.30;99.90;;;;;;5025672;28;20175;-83
2021/11/29 00:05:56;;;;;;;11.20;10.10;;;2.30;99.90;;;;;;5025663;28;20171;-84
2021/11/29 00:08:22;;;;;;;10.03;9.13;;;2.30;99.90;;;;;;5037394;28;20207;-84
2021/11/29 00:10:48;;;;;;;9.80;8.90;;;3.00;99.90;;;;;;5024964;28;20214;-84
2021/11/29 00:13:14;;;;;;;10.30;9.20;;;2.10;99.90;;;;;;5024938;28;20659;-84
2021/11/29 00:15:40;;;;;;;9.60;8.70;;;2.20;99.90;;;;;;5045797;28;20195;-84
2021/11/29 00:18:06;;;;;;;8.93;8.23;;;2.20;99.90;;;;;;5043068;28;20224;-84
2021/11/29 00:20:35;;;;;;;8.80;8.00;;;3.20;99.90;;;;;;5025387;28;20176;-83
2021/11/29 00:23:00;;;;;;;8.50;7.70;;;3.20;99.90;;;;;;5024587;28;20211;-85
2021/11/29 00:25:26;;;;;;;8.30;7.60;;;2.30;99.90;;;;;;5023395;28;20185;-84
2021/11/29 00:27:52;;;;;;;10.40;8.67;;;2.90;99.90;;;;;;5023592;28;20226;-84
2021/11/29 00:30:18;;;;;;;9.37;8.47;;;2.10;99.90;;;;;;5025177;28;20244;-84
2021/11/29 00:32:44;;;;;;;9.83;8.93;;;3.10;99.90;;;;;;5027190;28;20218;-84
2021/11/29 00:35:11;;;;;;;11.30;9.93;;;3.10;99.90;;;;;;5046023;28;20211;-85
2021/11/29 00:37:37;;;;;;;10.30;9.30;;;2.30;99.90;;;;;;5025003;28;20223;-84
2021/11/29 00:40:08;;;;;;;10.10;9.10;;;2.20;99.90;;;;;;5025994;28;20307;-85
2021/11/29 00:42:34;;;;;;;9.67;8.67;;;2.20;99.90;;;;;;5036257;28;20166;-83
2021/11/29 00:45:00;;;;;;;9.20;8.27;;;2.70;99.90;;;;;;5022718;28;20168;-83
2021/11/29 00:47:25;;;;;;;9.93;8.93;;;2.30;99.90;;;;;;5024804;28;20192;-84
2021/11/29 00:49:51;;;;;;;9.87;8.97;;;2.30;99.90;;;;;;5024569;28;20290;-85
2021/11/29 00:52:17;;;;;;;9.00;8.20;;;2.30;99.90;;;;;;5026880;28;20271;-84
2021/11/29 00:54:43;;;;;;;9.83;8.93;;;2.80;99.90;;;;;;5030146;28;20247;-85
2021/11/29 00:57:09;;;;;;;8.43;7.47;;;2.40;99.90;;;;;;5035587;28;20177;-84
2021/11/29 00:59:35;;;;;;;9.00;8.20;;;2.40;99.90;;;;;;5028857;28;20195;-84
2021/11/29 01:02:01;;;;;;;7.43;6.83;;;2.80;99.90;;;;;;5038062;28;20192;-85
2021/11/29 01:04:26;;;;;;;7.57;6.87;;;3.20;99.90;;;;;;5025834;28;20181;-84
2021/11/29 01:06:52;;;;;;;7.33;6.63;;;2.40;99.90;;;;;;5025935;28;20183;-85
2021/11/29 01:09:18;;;;;;;7.77;7.07;;;2.40;99.90;;;;;;5025528;28;20294;-85
2021/11/29 01:11:44;;;;;;;7.80;7.10;;;2.80;99.90;;;;;;5024778;28;20219;-85
2021/11/29 01:14:09;;;;;;;7.47;6.83;;;2.40;99.90;;;;;;5036806;28;20200;-84
2021/11/29 01:16:35;;;;;;;7.03;6.37;;;2.40;99.90;;;;;;5045154;28;20230;-83
2021/11/29 01:19:01;;;;;;;7.03;6.43;;;2.50;99.90;;;;;;5027444;28;20196;-84
2021/11/29 01:21:26;;;;;;;9.30;6.30;;;2.40;99.90;;;;;;5034528;28;20252;-83
2021/11/29 01:23:52;;;;;;;7.20;6.50;;;2.40;99.90;;;;;;5026976;28;20177;-84
2021/11/29 01:26:18;;;;;;;6.13;5.63;;;2.30;99.90;;;;;;5030502;28;20678;-83
2021/11/29 01:28:44;;;;;;;7.23;6.63;;;2.30;99.90;;;;;;5044583;28;20274;-83
2021/11/29 01:31:10;;;;;;;5.70;5.30;;;2.80;99.90;;;;;;5030874;28;20210;-83
2021/11/29 01:33:36;;;;;;;5.47;4.97;;;3.20;99.90;;;;;;5027292;28;20187;-86
2021/11/29 01:36:02;;;;;;;6.30;5.40;;;2.40;99.90;;;;;;5027216;28;20180;-82
2021/11/29 01:38:28;;;;;;;5.03;4.60;;;2.30;99.90;;;;;;5024711;28;20204;-84
2021/11/29 01:40:53;;;;;;;4.70;4.30;;;2.30;99.90;;;;;;5027881;28;20739;-83
2021/11/29 01:43:20;;;;;;;5.23;4.73;;;2.30;99.90;;;;;;5028239;28;20168;-82
2021/11/29 01:45:50;;;;;;;6.37;5.87;;;2.30;99.90;;;;;;5029229;28;20521;-84
2021/11/29 01:48:16;;;;;;;6.60;6.10;;;3.40;99.90;;;;;;5029159;28;20200;-84
2021/11/29 01:50:47;;;;;;;5.50;5.00;;;2.20;99.90;;;;;;5029277;28;20186;-84
2021/11/29 01:53:16;;;;;;;9.17;8.20;;;2.40;99.90;;;;;;5027505;28;20225;-84
2021/11/29 01:55:44;;;;;;;7.10;6.50;;;2.10;99.90;;;;;;5027629;28;20674;-84
2021/11/29 01:58:10;;;;;;;7.13;6.43;;;2.10;99.90;;;;;;5023472;28;20607;-84
2021/11/29 02:00:40;;;;;;;7.43;6.73;;;2.20;99.90;;;;;;5020536;28;20186;-83
2021/11/29 02:03:06;;;;;;;7.27;6.60;;;2.20;99.90;;;;;;5029612;28;20182;-84
2021/11/29 02:05:31;;;;;;;7.00;6.40;;;2.60;99.90;;;;;;5034421;28;20198;-83
2021/11/29 02:07:57;;;;;;;7.27;6.67;;;2.00;99.90;;;;;;5021390;28;20200;-83
2021/11/29 02:10:25;;;;;;;7.97;7.27;;;2.00;99.90;;;;;;5010077;28;20183;-84
2021/11/29 02:12:51;;;;;;;7.30;6.60;;;1.90;99.90;;;;;;5012648;28;20183;-83
2021/11/29 02:15:18;;;;;;;8.00;7.20;;;2.00;99.90;;;;;;5019276;28;20200;-83
2021/11/29 02:17:44;;;;;;;6.73;6.13;;;2.00;99.90;;;;;;5017135;28;20207;-85
2021/11/29 02:20:12;;;;;;;6.77;6.27;;;2.30;99.90;;;;;;5028523;28;20229;-84
2021/11/29 02:22:48;;;;;;;6.60;5.57;;;2.00;99.90;;;;;;5028192;28;20182;-84
2021/11/29 02:25:19;;;;;;;3.83;3.47;;;2.00;99.90;;;;;;5027744;28;20183;-82
2021/11/29 02:27:46;;;;;;;4.87;4.40;;;2.10;99.90;;;;;;5023308;28;20207;-84
2021/11/29 02:30:13;;;;;;;5.63;5.13;;;2.10;99.90;;;;;;5021983;28;20386;-84
2021/11/29 02:32:39;;;;;;;5.53;5.03;;;2.00;99.90;;;;;;5018436;28;20180;-83
2021/11/29 02:35:05;;;;;;;5.37;4.87;;;2.20;99.90;;;;;;5028996;28;20194;-83
2021/11/29 02:37:31;;;;;;;6.83;6.13;;;2.00;99.90;;;;;;5024447;28;20183;-82
2021/11/29 02:39:57;;;;;;;5.70;5.23;;;1.90;99.90;;;;;;5020851;28;20178;-83
2021/11/29 02:42:23;;;;;;;6.20;5.70;;;1.90;99.90;;;;;;5019084;28;20178;-83
2021/11/29 02:44:49;;;;;;;6.97;6.37;;;1.80;99.90;;;;;;5018571;28;20212;-85
2021/11/29 02:47:15;;;;;;;5.47;4.97;;;1.80;99.90;;;;;;5014457;28;20523;-86
2021/11/29 02:49:42;;;;;;;5.13;4.63;;;1.90;99.90;;;;;;5014763;28;20183;-84
2021/11/29 02:52:11;;;;;;;4.77;4.37;;;1.90;99.90;;;;;;5006647;28;20181;-85
2021/11/29 02:54:39;;;;;;;4.00;3.70;;;1.80;99.90;;;;;;5003678;28;20195;-85
2021/11/29 02:57:08;;;;;;;3.10;2.90;;;1.90;99.90;;;;;;5009324;28;20303;-85
2021/11/29 02:59:36;;;;;;;3.70;3.40;;;2.10;99.90;;;;;;5023848;28;20200;-84
2021/11/29 03:02:09;;;;;;;3.27;3.00;;;2.00;99.90;;;;;;5018294;28;20210;-84
2021/11/29 03:04:36;;;;;;;3.57;3.27;;;2.00;99.90;;;;;;5019870;28;20210;-83
2021/11/29 03:07:03;;;;;;;3.70;3.40;;;2.00;99.90;;;;;;5028949;28;20325;-85
2021/11/29 03:09:30;;;;;;;3.30;3.00;;;2.10;99.90;;;;;;5025268;28;20263;-85
2021/11/29 03:11:56;;;;;;;3.77;3.50;;;2.10;99.90;;;;;;5027587;28;20218;-85
2021/11/29 03:14:23;;;;;;;3.67;3.37;;;2.90;99.90;;;;;;5040777;28;20270;-84
2021/11/29 03:16:53;;;;;;;3.93;3.63;;;2.20;99.90;;;;;;5026544;28;20601;-83
2021/11/29 03:19:20;;;;;;;3.80;3.50;;;2.00;99.90;;;;;;5027794;28;20207;-82
2021/11/29 03:21:46;;;;;;;4.07;3.77;;;2.40;99.90;;;;;;5028962;28;20179;-86
2021/11/29 03:24:12;;;;;;;3.40;3.10;;;2.10;99.90;;;;;;5027087;28;20189;-83
2021/11/29 03:26:39;;;;;;;3.60;3.30;;;2.50;99.90;;;;;;5026451;28;20194;-83
2021/11/29 03:29:09;;;;;;;4.10;3.80;;;2.10;99.90;;;;;;5027949;28;20219;-82
2021/11/29 03:31:37;;;;;;;4.00;3.70;;;2.20;99.90;;;;;;5040885;28;20174;-85
2021/11/29 03:34:05;;;;;;;3.70;3.40;;;2.10;99.90;;;;;;5028084;28;20571;-83
2021/11/29 03:36:33;;;;;;;3.50;3.20;;;2.10;99.90;;;;;;5028111;28;20185;-82
2021/11/29 03:39:01;;;;;;;4.07;3.77;;;3.20;99.90;;;;;;5023830;28;20222;-85
2021/11/29 03:41:27;;;;;;;3.70;3.40;;;2.00;99.90;;;;;;5026638;28;20180;-85
2021/11/29 03:43:53;;;;;;;3.70;3.40;;;2.00;99.90;;;;;;5027392;28;20303;-84
2021/11/29 03:46:20;;;;;;;4.17;3.70;;;2.00;99.90;;;;;;5022287;28;20697;-83
2021/11/29 03:48:46;;;;;;;3.77;3.47;;;2.60;99.90;;;;;;5019255;28;20207;-82
2021/11/29 03:51:12;;;;;;;3.60;3.30;;;2.00;99.90;;;;;;5025431;28;20211;-82
2021/11/29 03:53:37;;;;;;;3.70;3.40;;;2.00;99.90;;;;;;5017790;28;20590;-83
2021/11/29 03:56:04;;;;;;;4.20;3.90;;;2.00;99.90;;;;;;5014731;28;20175;-82
2021/11/29 03:58:30;;;;;;;3.73;3.43;;;2.00;99.90;;;;;;5011527;28;20262;-82
2021/11/29 04:00:56;;;;;;;4.33;3.93;;;2.40;99.90;;;;;;5016667;28;20180;-85
2021/11/29 04:03:22;;;;;;;4.23;3.83;;;2.00;99.90;;;;;;5027170;28;20175;-85
2021/11/29 04:05:48;;;;;;;4.23;3.83;;;2.00;99.90;;;;;;5027189;28;20189;-85
2021/11/29 04:08:13;;;;;;;4.97;4.47;;;2.00;99.90;;;;;;5027097;28;20227;-85
2021/11/29 04:10:40;;;;;;;4.27;3.97;;;3.00;99.90;;;;;;5041377;28;20210;-85
2021/11/29 04:13:05;;;;;;;4.10;3.80;;;2.10;99.90;;;;;;5017057;28;20182;-85
2021/11/29 04:15:31;;;;;;;4.17;3.87;;;2.10;99.90;;;;;;5031177;28;20301;-84
2021/11/29 04:17:57;;;;;;;4.20;3.80;;;2.80;99.90;;;;;;5031624;28;20191;-85
2021/11/29 04:20:24;;;;;;;4.43;4.03;;;2.10;99.90;;;;;;5030488;28;20175;-85
2021/11/29 04:22:50;;;;;;;4.57;4.17;;;2.60;99.90;;;;;;5024561;28;20563;-85
2021/11/29 04:25:24;;;;;;;5.20;4.70;;;2.10;99.90;;;;;;5024514;28;20249;-84
2021/11/29 04:27:52;;;;;;;5.17;4.67;;;2.80;99.90;;;;;;5023121;28;20214;-83
2021/11/29 04:30:22;;;;;;;4.63;4.23;;;2.20;99.90;;;;;;5021878;28;20176;-83
2021/11/29 04:32:50;;;;;;;4.93;4.53;;;2.80;99.90;;;;;;5025280;28;20179;-83
2021/11/29 04:35:17;;;;;;;4.67;4.27;;;2.20;99.90;;;;;;5023374;28;20263;-84
2021/11/29 04:37:43;;;;;;;6.63;5.93;;;2.20;99.90;;;;;;5022110;28;20614;-84
2021/11/29 04:40:10;;;;;;;6.00;5.50;;;2.30;99.90;;;;;;5023008;28;20167;-85
2021/11/29 04:42:36;;;;;;;10.33;7.80;;;2.20;99.90;;;;;;5024409;28;20177;-86
2021/11/29 04:45:05;;;;;;;12.37;8.50;;;2.20;99.90;;;;;;5026558;28;20231;-83
2021/11/29 04:47:31;;;;;;;7.60;6.90;;;2.20;99.90;;;;;;5023950;28;20175;-85
2021/11/29 04:49:57;;;;;;;5.77;5.20;;;2.40;99.90;;;;;;5023304;28;20183;-85
2021/11/29 04:52:26;;;;;;;5.20;4.80;;;3.10;99.90;;;;;;5023828;28;20183;-84
2021/11/29 04:54:52;;;;;;;5.27;4.77;;;2.10;99.90;;;;;;5030483;28;20229;-85
2021/11/29 04:57:18;;;;;;;5.10;4.70;;;2.00;99.90;;;;;;5030098;28;20183;-85
2021/11/29 04:59:45;;;;;;;4.80;4.40;;;1.90;99.90;;;;;;5043514;28;20197;-85
2021/11/29 05:02:11;;;;;;;4.43;4.03;;;2.00;99.90;;;;;;5027254;28;20612;-85
2021/11/29 05:04:36;;;;;;;4.40;4.03;;;1.90;99.90;;;;;;5029778;28;20180;-83
2021/11/29 05:07:03;;;;;;;4.80;4.37;;;2.00;99.90;;;;;;5025360;28;20644;-83
2021/11/29 05:09:28;;;;;;;4.90;4.50;;;1.90;99.90;;;;;;5028231;28;20202;-84
2021/11/29 05:11:54;;;;;;;5.10;4.23;;;1.90;99.90;;;;;;5026963;28;20194;-83
2021/11/29 05:14:20;;;;;;;4.73;4.23;;;1.90;99.90;;;;;;5030854;28;20209;-83
2021/11/29 05:16:47;;;;;;;4.50;4.10;;;1.90;99.90;;;;;;5028985;28;20229;-84
2021/11/29 05:19:12;;;;;;;4.60;4.20;;;2.00;99.90;;;;;;5025461;28;20194;-85
2021/11/29 05:21:38;;;;;;;4.60;4.20;;;2.00;99.90;;;;;;5030342;28;20183;-81
2021/11/29 05:24:05;;;;;;;4.70;4.30;;;2.00;99.90;;;;;;5028537;28;20651;-83
2021/11/29 05:26:34;;;;;;;5.33;4.83;;;1.90;99.90;;;;;;5031245;28;20194;-83
2021/11/29 05:29:00;;;;;;;5.13;4.73;;;1.90;99.90;;;;;;5027436;28;20207;-83
2021/11/29 05:31:27;;;;;;;5.10;4.67;;;1.90;99.90;;;;;;5026864;28;20178;-84
2021/11/29 05:33:56;;;;;;;4.90;4.37;;;1.90;99.90;;;;;;5030107;28;20210;-83
2021/11/29 05:36:22;;;;;;;4.53;4.13;;;1.90;99.90;;;;;;5039039;23;20213;-78
2021/11/29 05:38:48;;;;;;;4.80;4.40;;;2.20;99.90;;;;;;4999120;28;20424;-77
2021/11/29 05:41:14;;;;;;;4.63;4.23;;;2.00;99.90;;;;;;4999309;28;20176;-79
2021/11/29 05:43:39;;;;;;;5.40;4.90;;;2.00;99.90;;;;;;4995470;28;20176;-77
2021/11/29 05:46:07;;;;;;;7.53;5.20;;;2.00;99.90;;;;;;4989156;28;20193;-77
2021/11/29 05:48:33;;;;;;;5.47;4.97;;;1.90;99.90;;;;;;4976124;28;20206;-76
2021/11/29 05:51:00;;;;;;;5.37;4.87;;;1.90;99.90;;;;;;4974912;28;20671;-76
2021/11/29 05:53:27;;;;;;;5.43;4.93;;;1.90;99.90;;;;;;4973633;28;20544;-77
2021/11/29 05:55:53;;;;;;;5.63;5.13;;;1.90;99.90;;;;;;4973673;28;20219;-75
2021/11/29 05:58:19;;;;;;;5.07;4.57;;;1.90;99.90;;;;;;4974431;28;20216;-77
2021/11/29 06:00:45;;;;;;;5.83;5.33;;;1.90;99.90;;;;;;4974506;28;20208;-78
2021/11/29 06:03:11;;;;;;;5.23;4.63;;;1.90;99.90;;;;;;4974698;28;20182;-77
2021/11/29 06:05:37;;;;;;;5.90;5.30;;;1.80;99.90;;;;;;4973469;28;20244;-79
2021/11/29 06:08:03;;;;;;;5.83;5.33;;;1.50;99.90;;;;;;4988787;28;20177;-77
2021/11/29 06:10:29;;;;;;;5.63;4.87;;;1.40;99.90;;;;;;4973957;28;20236;-77
2021/11/29 06:12:55;;;;;;;6.30;5.70;;;1.30;99.90;;;;;;4975208;28;20192;-76
2021/11/29 06:15:20;;;;;;;6.10;5.50;;;1.20;99.90;;;;;;4974493;28;20208;-76
2021/11/29 06:17:46;;;;;;;5.47;4.97;;;1.20;99.90;;;;;;4976030;28;20173;-76
2021/11/29 06:20:19;;;;;;;7.10;5.53;;;1.30;99.90;;;;;;4991355;28;20259;-76
2021/11/29 06:22:50;;;;;;;7.40;5.73;;;1.30;99.90;;;;;;4975060;28;20181;-76
2021/11/29 06:25:16;;;;;;;5.40;4.97;;;1.10;99.90;;;;;;4976402;28;20171;-75
2021/11/29 06:27:42;;;;;;;5.90;5.30;;;1.10;99.90;;;;;;4975022;28;20210;-76
2021/11/29 06:30:08;;;;;;;5.80;5.27;;;0.90;99.90;;;;;;4976274;28;20184;-76
2021/11/29 06:32:33;;;;;;;6.90;6.30;;;0.90;99.90;;;;;;4976173;28;20588;-76
2021/11/29 06:34:59;;;;;;;6.43;5.83;;;0.90;99.90;;;;;;4974785;28;20196;-74
2021/11/29 06:37:27;;;;;;;6.20;5.60;;;0.80;99.90;;;;;;4976152;28;20718;-76
2021/11/29 06:39:54;;;;;;;6.27;5.73;;;0.80;99.90;;;;;;4975791;28;20204;-76
2021/11/29 06:42:19;;;;;;;6.37;5.77;;;0.70;99.90;;;;;;4975947;28;20185;-76
2021/11/29 06:44:45;;;;;;;6.07;5.47;;;0.80;99.90;;;;;;4976958;28;20238;-76
2021/11/29 06:47:11;;;;;;;5.80;5.30;;;0.90;99.90;;;;;;4975456;28;20219;-76
2021/11/29 06:49:37;;;;;;;6.63;6.03;;;0.90;99.90;;;;;;4975839;28;20177;-76
2021/11/29 06:52:04;;;;;;;8.00;7.07;;;1.00;99.90;;;;;;4975627;28;20183;-78
2021/11/29 06:54:32;;;;;;;6.83;6.10;;;1.10;99.90;;;;;;4973666;28;20197;-76
2021/11/29 06:56:58;;;;;;;7.33;6.63;;;1.00;99.90;;;;;;4973587;28;20192;-76
2021/11/29 06:59:25;;;;;;;6.47;5.87;;;1.00;99.90;;;;;;4974404;28;20267;-77
2021/11/29 07:01:51;;;;;;;7.53;6.83;;;0.80;99.90;;;;;;4974442;28;20165;-76
2021/11/29 07:04:19;;;;;;;7.30;6.70;;;0.70;99.90;;;;;;4974550;28;20178;-76
2021/11/29 07:06:46;;;;;;;8.17;7.37;;;0.60;99.90;;;;;;4973705;28;20679;-76
2021/11/29 07:09:12;;;;;;;9.00;8.20;;;0.60;99.90;;;;;;4975499;28;20204;-76
2021/11/29 07:11:37;;;;;;;10.17;8.70;;;0.60;99.90;;;;;;4975539;28;20226;-76
2021/11/29 07:14:04;;;;;;;10.10;8.33;;;0.60;99.90;;;;;;4976508;28;20200;-76
2021/11/29 07:16:30;;;;;;;9.47;7.47;;;0.70;99.90;;;;;;4977472;28;20219;-76
2021/11/29 07:18:56;;;;;;;8.87;7.90;;;0.70;99.90;;;;;;4975694;28;20192;-76
2021/11/29 07:21:21;;;;;;;11.07;8.80;;;0.90;99.90;;;;;;4975407;28;20588;-77
2021/11/29 07:23:47;;;;;;;9.50;8.47;;;0.80;99.90;;;;;;4975493;28;20168;-76
2021/11/29 07:26:13;;;;;;;9.27;8.30;;;0.90;99.90;;;;;;4974467;28;20573;-78
2021/11/29 07:28:38;;;;;;;9.83;8.90;;;1.00;99.90;;;;;;4974562;28;20182;-77
2021/11/29 07:31:04;;;;;;;7.73;6.93;;;1.10;99.90;;;;;;4974476;28;20640;-78
2021/11/29 07:33:30;;;;;;;8.80;7.20;;;1.20;99.90;;;;;;4975043;28;20161;-76
2021/11/29 07:35:55;;;;;;;9.63;7.73;;;1.40;99.90;;;;;;4973599;28;20208;-76
2021/11/29 07:38:21;;;;;;;8.33;7.53;;;1.30;99.90;;;;;;4974758;28;20542;-77
2021/11/29 07:40:47;;;;;;;10.63;7.43;;;1.30;99.90;;;;;;4974103;28;20181;-76
2021/11/29 07:43:12;;;;;;;7.97;7.10;;;1.30;99.90;;;;;;4972757;28;20178;-77
2021/11/29 07:45:39;;;;;;;7.27;6.57;;;1.40;99.90;;;;;;4974309;28;20287;-78
2021/11/29 07:48:05;;;;;;;8.17;7.37;;;1.30;99.90;;;;;;4974374;28;20259;-76
2021/11/29 07:50:31;;;;;;;11.23;8.10;;;1.40;99.90;;;;;;4973765;28;20261;-77
2021/11/29 07:52:58;;;;;;;10.30;8.43;;;1.30;99.90;;;;;;4974706;28;20221;-76
2021/11/29 07:55:27;;;;;;;10.77;9.20;;;1.30;99.90;;;;;;4973755;28;20197;-77
2021/11/29 07:57:54;;;;;;;11.37;9.63;;;1.30;99.90;;;;;;4974246;28;20171;-76
2021/11/29 08:00:24;;;;;;;13.07;11.03;;;1.40;99.90;;;;;;4973391;28;20180;-77
2021/11/29 08:02:53;;;;;;;10.03;8.90;;;1.50;99.90;;;;;;4972002;28;20179;-77
2021/11/29 08:05:22;;;;;;;10.03;9.00;;;1.50;99.90;;;;;;4973290;28;20180;-77
2021/11/29 08:07:49;;;;;;;10.20;9.07;;;1.50;99.90;;;;;;4973762;28;20176;-76
2021/11/29 08:10:15;;;;;;;9.53;8.33;;;1.50;99.90;;;;;;4971654;28;20187;-75
2021/11/29 08:12:41;;;;;;;9.57;8.30;;;1.50;99.90;;;;;;4973175;28;20192;-75
2021/11/29 08:15:08;;;;;;;9.70;8.33;;;1.40;99.90;;;;;;4973694;28;20192;-74
2021/11/29 08:17:33;;;;;;;9.30;8.17;;;1.50;99.90;;;;;;4973488;28;20228;-74
2021/11/29 08:19:59;;;;;;;11.33;8.77;;;1.50;99.90;;;;;;4973068;28;20203;-74
2021/11/29 08:22:25;;;;;;;9.63;8.63;;;1.50;99.90;;;;;;4971933;28;20636;-74
2021/11/29 08:24:50;;;;;;;11.33;9.57;;;1.50;99.90;;;;;;4973219;28;20176;-74
2021/11/29 08:27:16;;;;;;;10.27;9.27;;;1.60;99.90;;;;;;4971318;28;20204;-74
2021/11/29 08:29:43;;;;;;;9.70;8.70;;;2.50;99.90;;;;;;4988036;28;20184;-75
2021/11/29 08:32:09;;;;;;;9.53;8.53;;;1.70;99.90;;;;;;4973437;28;20590;-74
2021/11/29 08:34:38;;;;;;;9.73;8.17;;;1.80;99.90;;;;;;4973356;28;20672;-74
2021/11/29 08:37:05;;;;;;;10.33;8.53;;;1.80;99.90;;;;;;4972202;28;20236;-78
2021/11/29 08:39:31;;;;;;;8.13;7.33;;;1.80;99.90;;;;;;4973400;28;20188;-76
2021/11/29 08:41:56;;;;;;;8.63;7.70;;;1.90;99.90;;;;;;4972200;28;20173;-73
2021/11/29 08:44:23;;;;;;;8.67;7.77;;;1.90;99.90;;;;;;4973137;28;20177;-74
2021/11/29 08:46:48;;;;;;;8.13;7.27;;;1.90;99.90;;;;;;4972745;28;20543;-74
2021/11/29 08:49:19;;;;;;;7.77;7.07;;;1.90;99.90;;;;;;4971979;28;20302;-74
2021/11/29 08:51:46;;;;;;;7.60;6.90;;;1.90;99.90;;;;;;4987735;28;20231;-74
2021/11/29 08:54:13;;;;;;;8.80;7.60;;;1.90;99.90;;;;;;4972847;28;20199;-74
2021/11/29 08:56:40;;;;;;;11.10;7.27;;;1.90;99.90;;;;;;4973269;28;20554;-74
2021/11/29 08:59:06;;;;;;;9.47;8.47;;;2.00;99.90;;;;;;4971828;28;20173;-77
2021/11/29 09:01:32;;;;;;;9.97;8.80;;;1.90;99.90;;;;;;4972914;28;20703;-75
2021/11/29 09:03:58;;;;;;;10.40;9.40;;;1.80;99.90;;;;;;4973243;28;20285;-74
2021/11/29 09:06:24;;;;;;;9.97;8.67;;;1.80;99.90;;;;;;4973127;28;20712;-73
2021/11/29 09:08:49;;;;;;;9.57;8.57;;;1.70;99.90;;;;;;4971495;28;20176;-75
2021/11/29 09:11:15;;;;;;;11.83;8.43;;;1.80;99.90;;;;;;4972785;28;20185;-77
2021/11/29 09:13:42;;;;;;;10.27;9.27;;;1.80;99.90;;;;;;4972576;28;20253;-76
2021/11/29 09:16:09;;;;;;;8.87;7.33;;;1.80;99.90;;;;;;4972495;28;20271;-77
2021/11/29 09:18:35;;;;;;;8.87;7.40;;;1.90;99.90;;;;;;4972764;28;20229;-76
2021/11/29 09:21:02;;;;;;;7.67;6.87;;;2.00;99.90;;;;;;4972375;28;20255;-76
2021/11/29 09:23:28;;;;;;;8.03;7.23;;;2.00;99.90;;;;;;4972852;28;20192;-76
2021/11/29 09:25:54;;;;;;;7.47;6.77;;;2.10;99.90;;;;;;4972578;28;20688;-74
2021/11/29 09:28:20;;;;;;;7.17;6.47;;;2.20;99.90;;;;;;4972598;28;20209;-74
2021/11/29 09:30:46;;;;;;;7.50;6.03;;;2.20;99.90;;;;;;4972702;28;20670;-76
2021/11/29 09:33:12;;;;;;;6.33;5.73;;;2.30;99.90;;;;;;4972465;28;20255;-75
2021/11/29 09:35:38;;;;;;;6.60;5.97;;;2.40;99.90;;;;;;4972094;28;20225;-74
2021/11/29 09:38:04;;;;;;;5.27;4.73;;;2.30;99.90;;;;;;4972419;28;20169;-73
2021/11/29 09:40:34;;;;;;;5.20;4.70;;;2.40;99.90;;;;;;4973250;28;20691;-74
2021/11/29 09:43:01;;;;;;;5.07;4.57;;;2.40;99.90;;;;;;4976174;28;20243;-74
2021/11/29 09:45:28;;;;;;;5.30;4.80;;;2.50;99.90;;;;;;4975790;28;20191;-74
2021/11/29 09:47:55;;;;;;;5.17;4.60;;;2.60;99.90;;;;;;4974608;28;20648;-74
2021/11/29 09:50:22;;;;;;;5.40;4.83;;;2.70;99.90;;;;;;4975064;28;20185;-77
2021/11/29 09:52:48;;;;;;;4.90;4.40;;;2.70;99.90;;;;;;4975276;28;20263;-78
2021/11/29 09:55:17;;;;;;;5.23;4.73;;;2.80;99.90;;;;;;4975452;28;20331;-77
2021/11/29 09:57:43;;;;;;;6.20;5.57;;;2.90;99.90;;;;;;4975831;28;20217;-76
2021/11/29 10:00:35;;;;;;;10.33;6.70;;;2.80;99.90;;;;;;4976903;28;20208;-76
2021/11/29 10:03:01;;;;;;;6.10;5.50;;;2.80;99.90;;;;;;4975594;28;20186;-76
2021/11/29 10:05:27;;;;;;;5.37;4.87;;;2.80;99.90;;;;;;4976687;28;20178;-76
2021/11/29 10:07:54;;;;;;;6.33;5.77;;;2.90;99.90;;;;;;4967017;28;20178;-76
2021/11/29 10:10:28;;;;;;;6.40;5.83;;;2.80;99.90;;;;;;4966818;28;20660;-75
2021/11/29 10:13:07;;;;;;;6.63;5.93;;;2.70;99.90;;;;;;4965887;28;20236;-78
2021/11/29 10:15:40;;;;;;;6.17;5.57;;;2.70;99.90;;;;;;4967476;28;20216;-78
2021/11/29 10:18:11;;;;;;;6.83;6.13;;;2.70;99.90;;;;;;4971024;28;20169;-77
2021/11/29 10:20:59;;;;;;;5.90;5.30;;;2.70;99.90;;;;;;4971755;28;20310;-76
2021/11/29 10:23:38;;;;;;;5.90;4.97;;;2.80;99.90;;;;;;4970158;28;20169;-76
2021/11/29 10:26:33;;;;;;;7.20;6.43;;;2.80;99.90;;;;;;4971843;28;20205;-77
2021/11/29 10:29:05;;;;;;;7.90;6.00;;;2.80;99.90;;;;;;4966165;28;20669;-77
2021/11/29 10:31:49;;;;;;;6.93;6.20;;;3.00;99.90;;;;;;4970899;28;20173;-76
2021/11/29 10:34:22;;;;;;;7.17;5.77;;;3.00;99.90;;;;;;4968334;28;20538;-76
2021/11/29 10:36:54;;;;;;;8.43;6.80;;;3.10;99.90;;;;;;4968439;28;20208;-78
2021/11/29 10:39:21;;;;;;;6.47;5.17;;;3.30;99.90;;;;;;4969074;28;20185;-75
2021/11/29 10:41:50;;;;;;;5.73;5.10;;;3.40;99.90;;;;;;4967174;28;20175;-76
2021/11/29 10:44:18;;;;;;;5.03;4.23;;;3.60;99.90;;;;;;4970154;28;20542;-78
2021/11/29 10:46:56;;;;;;;6.73;4.50;;;3.60;99.90;;;;;;4971745;28;20220;-77
2021/11/29 10:49:27;;;;;;;5.17;4.63;;;3.50;99.90;;;;;;4970425;28;20670;-78
2021/11/29 10:51:56;;;;;;;4.60;4.20;;;3.40;99.90;;;;;;4962306;28;20313;-77
2021/11/29 10:54:24;;;;;;;5.13;4.63;;;3.40;99.90;;;;;;4984803;28;20625;-75
2021/11/29 10:56:52;;;;;;;4.90;4.40;;;3.50;99.90;;;;;;4967219;28;20695;-78
2021/11/29 10:59:20;;;;;;;4.87;3.77;;;3.60;99.90;;;;;;4966497;28;20174;-78
2021/11/29 11:01:51;;;;;;;5.23;3.60;;;3.60;99.90;;;;;;4969627;28;20191;-76
2021/11/29 11:04:27;;;;;;;3.97;3.57;;;3.60;99.90;;;;;;4975033;28;20211;-78
2021/11/29 11:06:56;;;;;;;4.20;3.70;;;3.60;99.90;;;;;;4963169;28;20209;-78
2021/11/29 11:09:34;;;;;;;4.37;3.53;;;3.50;99.90;;;;;;4982498;28;20183;-77
2021/11/29 11:12:03;;;;;;;3.77;3.33;;;3.50;99.90;;;;;;4983226;28;20177;-77
2021/11/29 11:14:38;;;;;;;6.87;3.97;;;3.50;99.90;;;;;;4967723;28;20219;-76
2021/11/29 11:17:11;;;;;;;5.47;3.00;;;3.70;99.90;;;;;;4968390;28;20201;-77
2021/11/29 11:19:44;;;;;;;4.40;2.47;;;3.80;99.90;;;;;;4967756;28;20183;-77
2021/11/29 11:22:10;;;;;;;4.37;2.20;;;3.80;99.90;;;;;;4965120;28;20179;-76
2021/11/29 11:24:39;;;;;;;5.63;3.77;;;3.80;99.90;;;;;;4962073;28;20716;-77
2021/11/29 11:27:06;;;;;;;3.83;2.13;;;3.80;99.90;;;;;;4970756;28;20197;-78
2021/11/29 11:29:42;;;;;;;3.87;2.70;;;3.80;99.90;;;;;;4970168;28;20201;-77
2021/11/29 11:32:15;;;;;;;3.10;2.20;;;3.90;99.90;;;;;;4969907;28;20224;-78
2021/11/29 11:34:43;;;;;;;9.23;5.17;;;3.80;99.90;;;;;;4971239;28;20268;-78
2021/11/29 11:37:14;;;;;;;5.90;2.73;;;3.80;99.90;;;;;;5039230;23;20245;-83
2021/11/29 11:39:40;;;;;;;2.80;1.93;;;4.00;99.90;;;;;;5047690;28;20246;-85
2021/11/29 11:42:06;;;;;;;4.10;1.70;;;3.70;99.90;;;;;;5047851;28;20179;-84
2021/11/29 11:44:36;;;;;;;4.00;2.57;;;3.30;99.90;;;;;;5041189;28;20185;-84
2021/11/29 11:47:07;;;;;;;3.37;2.33;;;3.60;99.90;;;;;;5048163;28;20198;-84
2021/11/29 11:49:40;;;;;;;3.70;2.40;;;3.60;99.90;;;;;;5035956;28;20226;-84
2021/11/29 11:52:11;;;;;;;3.30;2.20;;;3.50;99.90;;;;;;5034945;28;20190;-82
2021/11/29 11:54:40;;;;;;;3.60;2.40;;;3.60;99.90;;;;;;5035112;28;20230;-85
2021/11/29 11:57:08;;;;;;;4.83;2.23;;;3.70;99.90;;;;;;5037818;28;20262;-84
2021/11/29 12:00:03;;;;;;;3.83;2.00;;;3.70;99.90;;;;;;5040331;28;20185;-83
2021/11/29 12:02:45;;;;;;;2.27;1.70;;;3.80;99.90;;;;;;5041765;28;20195;-84
2021/11/29 12:05:17;;;;;;;3.27;1.93;;;4.70;99.90;;;;;;5037564;28;20182;-84
2021/11/29 12:07:45;;;;;;;3.53;1.80;;;3.80;99.90;;;;;;5053168;28;20207;-85
2021/11/29 12:10:46;;;;;;;4.07;1.70;;;3.80;99.90;;;;;;5030774;28;20192;-84
2021/11/29 12:13:17;;;;;;;5.73;2.13;;;3.90;99.90;;;;;;5023297;28;20197;-84
2021/11/29 12:15:49;;;;;;;3.17;1.93;;;3.90;99.90;;;;;;5035750;28;20215;-85
2021/11/29 12:18:41;;;;;;;3.63;1.83;;;3.90;99.90;;;;;;5028559;28;20512;-84
2021/11/29 12:21:16;;;;;;;2.50;2.17;;;3.90;99.90;;;;;;5026702;28;20662;-83
2021/11/29 12:24:05;;;;;;;4.67;1.80;;;3.80;99.90;;;;;;5036403;28;20180;-83
2021/11/29 12:26:46;;;;;;;2.67;1.67;;;3.10;99.90;;;;;;5025812;28;20198;-83
2021/11/29 12:29:24;;;;;;;7.30;1.80;;;3.90;99.90;;;;;;5048382;28;20856;-86
2021/11/29 12:32:02;;;;;;;2.40;1.73;;;3.80;99.90;;;;;;5039201;28;20174;-84
2021/11/29 12:37:30;;;;;;;4.53;1.67;;;3.70;99.90;;;;;;5029157;28;20224;-84
2021/11/29 12:40:18;;;;;;;3.40;1.60;;;3.60;99.90;;;;;;5034460;28;20175;-86
2021/11/29 12:42:46;;;;;;;4.73;2.10;;;3.70;99.90;;;;;;5033253;28;20189;-83
2021/11/29 12:45:14;;;;;;;6.80;2.03;;;3.90;99.90;;;;;;5036774;28;20195;-83
2021/11/29 12:47:51;;;;;;;2.30;1.30;;;3.60;99.90;;;;;;5024820;28;20203;-85
2021/11/29 12:50:37;;;;;;;7.23;1.87;;;3.60;99.90;;;;;;5027904;28;20190;-85
2021/11/29 12:53:28;;;;;;;2.30;1.33;;;3.60;99.90;;;;;;5023967;28;20182;-85
2021/11/29 12:56:05;;;;;;;4.40;1.57;;;4.40;99.90;;;;;;5025819;28;20250;-83
2021/11/29 12:58:38;;;;;;;3.40;1.90;;;3.60;99.90;;;;;;5028327;28;20170;-83
2021/11/29 13:01:16;;;;;;;3.17;1.60;;;3.60;99.90;;;;;;5028162;28;20177;-84
2021/11/29 13:03:55;;;;;;;4.43;1.60;;;3.60;99.90;;;;;;5052038;28;20670;-85